createdAt,value
2018-06-29T00:00:09.457Z,75.07
2018-06-29T00:01:09.514Z,74.98
2018-06-29T00:03:02.520Z,75.07
2018-06-29T00:04:02.577Z,75.07
2018-06-29T00:05:56.077Z,75.07
2018-06-29T00:06:56.143Z,74.40
2018-06-29T00:08:49.150Z,75.07
2018-06-29T00:09:49.207Z,74.98
2018-06-29T00:11:42.210Z,75.07
2018-06-29T00:12:42.267Z,75.17
2018-06-29T00:14:35.260Z,75.07
2018-06-29T00:15:35.330Z,74.30
2018-06-29T00:17:28.327Z,74.98
2018-06-29T00:18:28.384Z,74.88
2018-06-29T00:20:21.382Z,74.69
2018-06-29T00:21:21.447Z,75.32
2018-06-29T00:23:14.452Z,74.65
2018-06-29T00:24:14.513Z,75.27
2018-06-29T00:26:07.510Z,75.32
2018-06-29T00:27:07.569Z,75.42
2018-06-29T00:29:00.574Z,75.17
2018-06-29T00:30:00.631Z,75.32
2018-06-29T00:31:53.624Z,74.55
2018-06-29T00:32:53.689Z,74.55
2018-06-29T00:34:46.691Z,74.55
2018-06-29T00:35:46.748Z,75.04
2018-06-29T00:37:39.750Z,74.37
2018-06-29T00:38:39.811Z,75.32
2018-06-29T00:40:32.802Z,74.85
2018-06-29T00:41:32.869Z,74.65
2018-06-29T00:43:25.868Z,74.37
2018-06-29T00:44:25.925Z,75.13
2018-06-29T00:46:18.927Z,74.75
2018-06-29T00:47:18.989Z,75.04
2018-06-29T00:49:11.990Z,74.75
2018-06-29T00:50:12.048Z,74.90
2018-06-29T00:52:05.049Z,74.43
2018-06-29T00:53:05.109Z,75.23
2018-06-29T00:54:58.110Z,74.65
2018-06-29T00:55:58.172Z,74.71
2018-06-29T00:57:51.176Z,74.81
2018-06-29T00:58:51.236Z,75.20
2018-06-29T01:00:44.230Z,75.29
2018-06-29T01:01:44.294Z,74.62
2018-06-29T01:03:37.294Z,74.62
2018-06-29T01:04:37.354Z,74.62
2018-06-29T01:06:30.855Z,75.00
2018-06-29T01:07:30.921Z,75.20
2018-06-29T01:09:23.921Z,75.38
2018-06-29T01:10:23.980Z,75.20
2018-06-29T01:12:16.971Z,75.10
2018-06-29T01:13:17.037Z,75.00
2018-06-29T01:15:10.039Z,75.00
2018-06-29T01:16:10.097Z,75.00
2018-06-29T01:18:03.092Z,75.00
2018-06-29T01:19:03.155Z,75.00
2018-06-29T01:20:56.157Z,75.29
2018-06-29T01:21:56.221Z,75.25
2018-06-29T01:23:49.227Z,75.77
2018-06-29T01:24:49.278Z,74.96
2018-06-29T01:26:42.271Z,75.25
2018-06-29T01:27:42.339Z,74.96
2018-06-29T01:29:35.337Z,75.15
2018-06-29T01:30:35.396Z,75.35
2018-06-29T01:32:28.392Z,75.25
2018-06-29T01:33:28.458Z,75.35
2018-06-29T01:35:21.462Z,75.63
2018-06-29T01:36:21.522Z,75.35
2018-06-29T01:38:14.520Z,75.06
2018-06-29T01:39:14.585Z,75.15
2018-06-29T01:41:07.581Z,75.25
2018-06-29T01:42:07.639Z,75.63
2018-06-29T01:44:00.640Z,75.06
2018-06-29T01:45:00.698Z,75.25
2018-06-29T01:46:53.698Z,75.06
2018-06-29T01:47:53.755Z,75.12
2018-06-29T01:49:46.757Z,75.15
2018-06-29T01:50:46.817Z,75.06
2018-06-29T01:52:39.831Z,75.25
2018-06-29T01:53:39.871Z,75.25
2018-06-29T01:55:32.874Z,75.50
2018-06-29T01:56:32.929Z,75.02
2018-06-29T01:58:25.923Z,74.83
2018-06-29T01:59:25.987Z,75.12
2018-06-29T02:01:18.987Z,74.83
2018-06-29T02:02:19.044Z,74.93
2018-06-29T02:04:12.044Z,75.12
2018-06-29T02:05:12.103Z,74.93
2018-06-29T02:07:05.106Z,74.73
2018-06-29T02:08:05.221Z,74.93
2018-06-29T02:09:58.163Z,74.83
2018-06-29T02:10:58.220Z,74.93
2018-06-29T02:12:51.215Z,74.44
2018-06-29T02:13:51.277Z,74.54
2018-06-29T02:15:44.277Z,74.26
2018-06-29T02:16:44.337Z,73.97
2018-06-29T02:18:37.328Z,74.35
2018-06-29T02:19:37.388Z,73.97
2018-06-29T02:21:30.391Z,73.93
2018-06-29T02:22:30.450Z,73.97
2018-06-29T02:24:23.440Z,74.12
2018-06-29T02:25:23.506Z,74.02
2018-06-29T02:27:16.504Z,74.31
2018-06-29T02:28:16.564Z,73.93
2018-06-29T02:30:09.561Z,73.83
2018-06-29T02:31:09.619Z,74.02
2018-06-29T02:33:02.609Z,74.02
2018-06-29T02:34:02.675Z,74.22
2018-06-29T02:35:55.674Z,74.41
2018-06-29T02:36:55.731Z,74.22
2018-06-29T02:38:48.725Z,73.77
2018-06-29T02:39:48.787Z,74.31
2018-06-29T02:41:41.786Z,73.77
2018-06-29T02:42:41.844Z,73.93
2018-06-29T02:44:34.836Z,73.55
2018-06-29T02:45:34.901Z,73.93
2018-06-29T02:47:27.898Z,73.83
2018-06-29T02:48:27.956Z,73.68
2018-06-29T02:50:20.950Z,73.26
2018-06-29T02:51:21.011Z,73.35
2018-06-29T02:53:14.012Z,74.02
2018-06-29T02:54:14.072Z,73.35
2018-06-29T02:56:07.072Z,73.45
2018-06-29T02:57:07.129Z,73.35
2018-06-29T02:59:00.125Z,73.16
2018-06-29T03:00:00.188Z,73.35
2018-06-29T03:01:53.188Z,72.88
2018-06-29T03:02:53.245Z,73.35
2018-06-29T03:04:46.237Z,72.78
2018-06-29T03:05:46.302Z,72.11
2018-06-29T03:07:39.302Z,72.68
2018-06-29T03:08:39.359Z,72.39
2018-06-29T03:10:32.350Z,72.11
2018-06-29T03:11:32.415Z,71.82
2018-06-29T03:13:25.421Z,71.82
2018-06-29T03:14:25.471Z,72.11
2018-06-29T03:16:18.473Z,71.82
2018-06-29T03:17:18.525Z,71.53
2018-06-29T03:19:11.523Z,70.96
2018-06-29T03:20:11.584Z,71.05
2018-06-29T03:22:04.582Z,71.63
2018-06-29T03:23:04.640Z,71.34
2018-06-29T03:24:57.632Z,70.76
2018-06-29T03:25:57.698Z,70.57
2018-06-29T03:27:50.696Z,70.86
2018-06-29T03:28:50.754Z,70.48
2018-06-29T03:30:43.745Z,69.81
2018-06-29T03:31:43.813Z,70.38
2018-06-29T03:33:36.810Z,69.48
2018-06-29T03:34:36.874Z,69.01
2018-06-29T03:36:29.865Z,68.72
2018-06-29T03:37:29.926Z,68.72
2018-06-29T03:39:22.925Z,68.24
2018-06-29T03:40:23.013Z,67.95
2018-06-29T03:42:15.981Z,67.47
2018-06-29T03:43:16.040Z,67.47
2018-06-29T03:45:09.037Z,67.18
2018-06-29T03:46:09.100Z,66.61
2018-06-29T03:48:02.100Z,66.32
2018-06-29T03:49:02.157Z,65.65
2018-06-29T03:50:55.148Z,66.03
2018-06-29T03:51:55.216Z,65.46
2018-06-29T03:53:48.211Z,65.17
2018-06-29T03:54:48.269Z,64.59
2018-06-29T03:56:41.270Z,64.89
2018-06-29T03:57:41.329Z,64.12
2018-06-29T03:59:34.328Z,64.02
2018-06-29T04:00:34.386Z,63.92
2018-06-29T04:02:27.378Z,64.02
2018-06-29T04:03:27.442Z,63.92
2018-06-29T04:05:20.444Z,63.83
2018-06-29T04:06:20.500Z,63.16
2018-06-29T04:08:13.500Z,63.06
2018-06-29T04:09:13.558Z,63.26
2018-06-29T04:11:06.547Z,63.26
2018-06-29T04:12:06.614Z,63.26
2018-06-29T04:13:59.612Z,62.96
2018-06-29T04:14:59.669Z,62.87
2018-06-29T04:16:52.662Z,62.87
2018-06-29T04:17:52.728Z,62.77
2018-06-29T04:19:45.724Z,62.77
2018-06-29T04:20:45.782Z,62.96
2018-06-29T04:22:38.780Z,62.10
2018-06-29T04:23:38.843Z,62.01
2018-06-29T04:25:31.845Z,61.91
2018-06-29T04:26:31.923Z,61.63
2018-06-29T04:28:24.899Z,61.91
2018-06-29T04:29:24.955Z,61.43
2018-06-29T04:31:17.953Z,61.72
2018-06-29T04:32:18.027Z,61.63
2018-06-29T04:34:11.015Z,61.82
2018-06-29T04:35:11.074Z,61.53
2018-06-29T04:37:04.069Z,61.72
2018-06-29T04:38:04.127Z,61.24
2018-06-29T04:39:57.128Z,60.67
2018-06-29T04:40:57.185Z,61.34
2018-06-29T04:42:50.201Z,61.63
2018-06-29T04:43:50.244Z,61.43
2018-06-29T04:45:43.243Z,61.75
2018-06-29T04:46:43.301Z,61.27
2018-06-29T04:48:36.296Z,61.08
2018-06-29T04:49:36.358Z,61.82
2018-06-29T04:51:29.359Z,61.85
2018-06-29T04:52:29.413Z,61.46
2018-06-29T04:54:22.416Z,61.37
2018-06-29T04:55:22.471Z,61.18
2018-06-29T04:57:15.462Z,61.27
2018-06-29T04:58:15.528Z,60.79
2018-06-29T05:00:08.525Z,60.99
2018-06-29T05:01:08.583Z,61.37
2018-06-29T05:03:01.579Z,61.46
2018-06-29T05:04:01.637Z,61.46
2018-06-29T05:05:54.640Z,61.27
2018-06-29T05:06:54.696Z,60.70
2018-06-29T05:08:47.691Z,60.79
2018-06-29T05:09:47.758Z,60.70
2018-06-29T05:11:40.769Z,60.99
2018-06-29T05:12:40.825Z,60.82
2018-06-29T05:14:33.827Z,60.79
2018-06-29T05:15:33.945Z,60.92
2018-06-29T05:17:26.890Z,60.82
2018-06-29T05:18:26.947Z,61.40
2018-06-29T05:20:19.960Z,60.82
2018-06-29T05:21:20.003Z,60.35
2018-06-29T05:23:12.993Z,60.63
2018-06-29T05:24:13.058Z,60.72
2018-06-29T05:26:06.058Z,61.11
2018-06-29T05:27:06.114Z,60.72
2018-06-29T05:28:59.108Z,60.44
2018-06-29T05:29:59.172Z,60.53
2018-06-29T05:31:52.174Z,60.72
2018-06-29T05:32:52.230Z,60.82
2018-06-29T05:34:45.229Z,60.82
2018-06-29T05:35:45.288Z,60.53
2018-06-29T05:37:38.293Z,60.72
2018-06-29T05:38:38.345Z,60.92
2018-06-29T05:40:31.346Z,60.72
2018-06-29T05:41:31.510Z,60.47
2018-06-29T05:43:24.405Z,60.28
2018-06-29T05:44:24.465Z,60.66
2018-06-29T05:46:17.476Z,60.75
2018-06-29T05:47:17.522Z,61.05
2018-06-29T05:49:10.520Z,61.43
2018-06-29T05:50:10.580Z,62.29
2018-06-29T05:52:03.583Z,61.84
2018-06-29T05:53:03.702Z,61.27
2018-06-29T05:54:56.643Z,61.94
2018-06-29T05:55:56.706Z,61.75
2018-06-29T05:57:49.706Z,61.84
2018-06-29T05:58:49.761Z,62.23
2018-06-29T06:00:42.754Z,61.94
2018-06-29T06:01:42.819Z,62.04
2018-06-29T06:03:35.816Z,63.60
2018-06-29T06:04:35.933Z,63.60
2018-06-29T06:06:28.872Z,63.51
2018-06-29T06:07:28.928Z,63.60
2018-06-29T06:09:21.926Z,64.89
2018-06-29T06:10:22.155Z,65.27
2018-06-29T06:12:14.984Z,66.27
2018-06-29T06:13:15.043Z,66.46
2018-06-29T06:15:08.035Z,68.51
2018-06-29T06:16:08.134Z,69.73
2018-06-29T06:18:01.099Z,73.72
2018-06-29T06:19:01.158Z,74.24
2018-06-29T06:20:54.151Z,75.26
2018-06-29T06:21:54.223Z,74.07
2018-06-29T06:23:47.220Z,69.67
2018-06-29T06:24:47.269Z,66.40
2018-06-29T06:26:40.267Z,61.91
2018-06-29T06:27:40.332Z,60.28
2018-06-29T06:29:33.333Z,58.31
2018-06-29T06:30:33.392Z,57.36
2018-06-29T06:32:26.400Z,55.41
2018-06-29T06:33:26.461Z,54.25
2018-06-29T06:35:19.461Z,52.67
2018-06-29T06:36:19.530Z,52.19
2018-06-29T06:38:12.544Z,50.09
2018-06-29T06:39:12.603Z,49.32
2018-06-29T06:41:05.608Z,48.19
2018-06-29T06:42:05.685Z,47.07
2018-06-29T06:43:58.698Z,45.55
2018-06-29T06:44:58.767Z,44.59
2018-06-29T06:46:51.791Z,42.97
2018-06-29T06:47:51.851Z,42.97
2018-06-29T06:49:44.861Z,41.92
2018-06-29T06:50:44.929Z,41.62
2018-06-29T06:52:37.939Z,41.08
2018-06-29T06:53:38.042Z,40.61
2018-06-29T06:55:31.031Z,40.39
2018-06-29T06:56:31.100Z,39.74
2018-06-29T06:58:24.121Z,39.06
2018-06-29T06:59:24.223Z,38.78
2018-06-29T07:01:17.203Z,38.74
2018-06-29T07:02:17.278Z,38.64
2018-06-29T07:04:10.305Z,38.39
2018-06-29T07:05:10.375Z,37.34
2018-06-29T07:07:03.394Z,36.28
2018-06-29T07:08:03.470Z,36.00
2018-06-29T07:09:56.492Z,34.84
2018-06-29T07:10:56.564Z,34.92
2018-06-29T07:12:49.693Z,34.38
2018-06-29T07:13:49.656Z,33.69
2018-06-29T07:15:42.683Z,33.13
2018-06-29T07:16:42.758Z,32.92
2018-06-29T07:18:35.780Z,33.39
2018-06-29T07:19:35.857Z,33.79
2018-06-29T07:21:28.872Z,33.31
2018-06-29T07:22:28.949Z,33.31
2018-06-29T07:24:22.023Z,32.92
2018-06-29T07:25:22.047Z,32.72
2018-06-29T07:27:15.070Z,32.34
2018-06-29T07:28:15.147Z,31.95
2018-06-29T07:30:08.270Z,31.56
2018-06-29T07:31:08.255Z,31.26
2018-06-29T07:33:01.282Z,30.89
2018-06-29T07:34:01.362Z,30.40
2018-06-29T10:30:04.089Z,42.74
2018-06-29T10:31:04.158Z,43.13
2018-06-29T10:32:57.168Z,42.65
2018-06-29T10:33:57.242Z,43.33
2018-06-29T10:35:50.254Z,43.33
2018-06-29T10:36:50.366Z,43.04
2018-06-29T10:38:43.350Z,43.62
2018-06-29T10:39:43.407Z,43.04
2018-06-29T10:41:36.428Z,43.52
2018-06-29T10:42:36.490Z,44.01
2018-06-29T10:44:29.504Z,43.71
2018-06-29T10:45:29.587Z,45.20
2018-06-29T10:47:22.580Z,43.54
2018-06-29T10:48:22.652Z,43.54
2018-06-29T10:50:15.668Z,44.01
2018-06-29T10:51:15.734Z,43.52
2018-06-29T10:53:08.746Z,42.91
2018-06-29T10:54:08.814Z,43.40
2018-06-29T10:56:01.841Z,43.52
2018-06-29T10:57:01.910Z,44.01
2018-06-29T10:58:54.920Z,43.23
2018-06-29T10:59:54.990Z,43.33
2018-06-29T11:01:48.007Z,42.65
2018-06-29T11:02:48.073Z,42.65
2018-06-29T11:04:41.088Z,44.10
2018-06-29T11:05:41.157Z,42.74
2018-06-29T11:07:34.172Z,46.05
2018-06-29T11:08:34.238Z,42.84
2018-06-29T11:10:27.251Z,43.52
2018-06-29T11:11:27.317Z,43.81
2018-06-29T11:13:20.327Z,44.40
2018-06-29T11:14:20.395Z,43.81
2018-06-29T11:16:13.419Z,43.13
2018-06-29T11:17:13.482Z,44.10
2018-06-29T11:19:06.492Z,43.52
2018-06-29T11:20:06.563Z,42.94
2018-06-29T11:21:59.578Z,44.30
2018-06-29T11:22:59.643Z,43.40
2018-06-29T11:24:52.653Z,42.72
2018-06-29T11:25:52.727Z,43.01
2018-06-29T11:27:45.738Z,42.21
2018-06-29T11:28:45.804Z,42.80
2018-06-29T11:30:38.821Z,43.48
2018-06-29T11:31:38.886Z,43.70
2018-06-29T11:33:31.898Z,43.30
2018-06-29T11:34:31.970Z,42.43
2018-06-29T11:36:24.985Z,42.82
2018-06-29T11:37:25.051Z,42.91
2018-06-29T11:39:18.059Z,42.91
2018-06-29T11:40:18.134Z,41.75
2018-06-29T11:42:11.148Z,42.53
2018-06-29T11:43:11.212Z,43.01
2018-06-29T11:45:04.221Z,42.33
2018-06-29T11:46:04.294Z,41.75
2018-06-29T11:47:57.303Z,42.72
2018-06-29T11:48:57.379Z,42.91
2018-06-29T11:50:50.385Z,41.94
2018-06-29T11:51:50.450Z,42.04
2018-06-29T11:53:43.461Z,41.65
2018-06-29T11:54:43.528Z,41.55
2018-06-29T11:56:38.055Z,41.94
2018-06-29T11:57:38.119Z,42.63
2018-06-29T11:59:31.124Z,41.85
2018-06-29T12:00:31.238Z,41.55
2018-06-29T12:02:24.210Z,42.02
2018-06-29T12:03:24.275Z,42.90
2018-06-29T12:05:17.297Z,42.99
2018-06-29T12:06:17.352Z,42.60
2018-06-29T12:08:10.366Z,42.33
2018-06-29T12:09:10.431Z,41.85
2018-06-29T12:11:03.437Z,41.16
2018-06-29T12:12:03.509Z,41.46
2018-06-29T12:13:56.522Z,41.75
2018-06-29T12:14:56.655Z,41.65
2018-06-29T12:16:49.633Z,40.58
2018-06-29T12:17:49.671Z,41.06
2018-06-29T12:19:42.681Z,40.37
2018-06-29T12:20:42.801Z,41.14
2018-06-29T12:22:35.759Z,41.55
2018-06-29T12:23:35.826Z,41.53
2018-06-29T12:25:28.853Z,41.75
2018-06-29T12:26:28.904Z,41.75
2018-06-29T12:28:21.966Z,41.06
2018-06-29T12:29:21.995Z,41.06
2018-06-29T12:31:15.001Z,41.26
2018-06-29T12:32:15.091Z,41.36
2018-06-29T12:34:08.088Z,41.46
2018-06-29T12:35:08.147Z,40.58
2018-06-29T12:37:01.158Z,40.39
2018-06-29T12:38:01.317Z,40.97
2018-06-29T12:39:54.743Z,40.48
2018-06-29T12:40:54.814Z,40.58
2018-06-29T12:42:47.822Z,42.14
2018-06-29T12:43:47.891Z,41.55
2018-06-29T12:45:41.408Z,41.75
2018-06-29T12:46:41.477Z,41.85
2018-06-29T12:48:34.486Z,42.43
2018-06-29T12:49:34.553Z,42.72
2018-06-29T12:51:27.614Z,42.94
2018-06-29T12:52:27.630Z,43.62
2018-06-29T12:54:20.642Z,41.96
2018-06-29T12:55:20.706Z,42.06
2018-06-29T12:57:13.745Z,42.43
2018-06-29T12:58:13.799Z,42.72
2018-06-29T13:00:06.825Z,42.72
2018-06-29T13:01:06.878Z,42.55
2018-06-29T13:02:59.932Z,42.25
2018-06-29T13:03:59.949Z,42.82
2018-06-29T13:05:52.954Z,41.38
2018-06-29T13:06:53.026Z,42.33
2018-06-29T13:08:46.037Z,41.65
2018-06-29T13:09:46.101Z,40.97
2018-06-29T13:11:39.122Z,40.97
2018-06-29T13:12:39.191Z,45.25
2018-06-29T13:14:32.201Z,41.55
2018-06-29T13:15:32.267Z,41.55
2018-06-29T13:17:25.276Z,40.00
2018-06-29T13:18:25.345Z,40.00
2018-06-29T13:20:18.360Z,40.19
2018-06-29T13:21:18.425Z,39.61
2018-06-29T13:23:11.441Z,39.04
2018-06-29T13:24:11.505Z,38.73
2018-06-29T13:26:04.513Z,38.24
2018-06-29T13:27:04.583Z,38.07
2018-06-29T13:28:57.597Z,38.75
2018-06-29T13:29:57.662Z,38.15
2018-06-29T13:31:50.667Z,38.54
2018-06-29T13:32:50.740Z,39.41
2018-06-29T13:34:43.754Z,40.19
2018-06-29T13:35:43.830Z,38.65
2018-06-29T13:37:36.823Z,37.46
2018-06-29T13:38:36.894Z,37.18
2018-06-29T13:40:29.907Z,38.73
2018-06-29T13:41:29.970Z,37.76
2018-06-29T13:43:22.990Z,36.59
2018-06-29T13:44:23.047Z,36.80
2018-06-29T13:46:16.060Z,36.20
2018-06-29T13:47:16.123Z,35.91
2018-06-29T13:49:09.141Z,36.79
2018-06-29T13:50:09.203Z,36.79
2018-06-29T13:52:02.225Z,36.49
2018-06-29T13:53:02.291Z,36.61
2018-06-29T13:54:55.332Z,37.00
2018-06-29T13:55:55.375Z,37.58
2018-06-29T13:57:48.415Z,37.10
2018-06-29T13:58:48.474Z,37.58
2018-06-29T14:00:41.483Z,37.39
2018-06-29T14:01:41.552Z,37.58
2018-06-29T14:03:34.567Z,37.68
2018-06-29T14:04:34.637Z,37.58
2018-06-29T14:06:27.645Z,37.58
2018-06-29T14:07:27.714Z,36.22
2018-06-29T14:09:20.724Z,34.86
2018-06-29T14:10:20.786Z,35.83
2018-06-29T14:12:13.797Z,34.56
2018-06-29T14:13:13.863Z,35.52
2018-06-29T14:15:06.883Z,37.10
2018-06-29T14:16:06.947Z,37.56
2018-06-29T14:17:59.976Z,37.39
2018-06-29T14:19:00.029Z,37.48
2018-06-29T14:20:53.543Z,37.48
2018-06-29T14:21:53.610Z,37.37
2018-06-29T14:23:46.617Z,38.75
2018-06-29T14:24:46.689Z,37.77
2018-06-29T14:26:39.703Z,37.00
2018-06-29T14:27:39.764Z,37.29
2018-06-29T14:29:32.773Z,35.93
2018-06-29T14:30:32.840Z,35.83
2018-06-29T14:32:25.855Z,35.73
2018-06-29T14:33:25.916Z,35.05
2018-06-29T14:35:18.921Z,34.94
2018-06-29T14:36:18.994Z,36.10
2018-06-29T14:38:12.020Z,37.27
2018-06-29T14:39:12.220Z,37.39
2018-06-29T14:41:05.097Z,35.83
2018-06-29T14:42:05.163Z,35.44
2018-06-29T14:43:58.168Z,35.53
2018-06-29T14:44:58.238Z,35.73
2018-06-29T14:46:51.256Z,37.08
2018-06-29T14:47:51.322Z,37.10
2018-06-29T14:49:44.324Z,37.27
2018-06-29T14:50:44.394Z,37.19
2018-06-29T14:52:37.404Z,37.58
2018-06-29T14:53:37.470Z,37.97
2018-06-29T14:55:30.476Z,37.29
2018-06-29T14:56:30.543Z,37.87
2018-06-29T14:58:23.554Z,36.71
2018-06-29T14:59:23.617Z,36.51
2018-06-29T15:01:16.637Z,37.48
2018-06-29T15:02:16.703Z,37.68
2018-06-29T15:04:09.710Z,35.83
2018-06-29T15:05:09.781Z,36.51
2018-06-29T15:07:02.809Z,37.02
2018-06-29T15:08:02.863Z,36.61
2018-06-29T15:09:55.871Z,36.41
2018-06-29T15:10:55.943Z,36.02
2018-06-29T15:12:48.990Z,36.90
2018-06-29T15:13:49.215Z,36.51
2018-06-29T15:15:42.024Z,36.61
2018-06-29T15:16:42.092Z,36.80
2018-06-29T15:18:35.111Z,37.29
2018-06-29T15:19:35.170Z,36.49
2018-06-29T15:21:28.174Z,36.40
2018-06-29T15:22:28.240Z,37.19
2018-06-29T15:24:21.251Z,36.61
2018-06-29T15:25:21.378Z,37.48
2018-06-29T15:27:14.325Z,37.19
2018-06-29T15:28:14.393Z,37.29
2018-06-29T15:30:07.400Z,37.68
2018-06-29T15:31:07.500Z,37.29
2018-06-29T15:33:00.477Z,37.68
2018-06-29T15:34:00.544Z,37.68
2018-06-29T15:35:53.551Z,38.44
2018-06-29T15:36:53.619Z,38.54
2018-06-29T15:38:46.632Z,39.03
2018-06-29T15:39:46.736Z,39.51
2018-06-29T15:41:39.701Z,40.29
2018-06-29T15:42:39.769Z,40.09
2018-06-29T15:44:32.782Z,39.53
2018-06-29T15:45:32.847Z,39.92
2018-06-29T15:47:25.860Z,40.60
2018-06-29T15:48:25.922Z,40.99
2018-06-29T15:50:18.933Z,40.89
2018-06-29T15:51:18.997Z,40.70
2018-06-29T15:53:12.020Z,40.89
2018-06-29T15:54:12.079Z,41.06
2018-06-29T15:56:05.088Z,41.16
2018-06-29T15:57:05.153Z,41.65
2018-06-29T15:58:58.179Z,41.65
2018-06-29T15:59:58.235Z,42.14
2018-06-29T16:01:51.242Z,42.33
2018-06-29T16:02:51.311Z,43.30
2018-06-29T16:04:44.324Z,43.30
2018-06-29T16:05:44.388Z,44.18
2018-06-29T16:07:37.401Z,45.25
2018-06-29T16:08:37.463Z,45.35
2018-06-29T16:10:30.478Z,45.64
2018-06-29T16:11:30.548Z,45.64
2018-06-29T16:13:23.567Z,46.61
2018-06-29T16:14:23.636Z,47.00
2018-06-29T16:16:16.637Z,46.51
2018-06-29T16:17:16.708Z,47.00
2018-06-29T16:19:09.722Z,46.13
2018-06-29T16:20:09.793Z,46.51
2018-06-29T16:22:02.796Z,47.30
2018-06-29T16:23:02.876Z,47.00
2018-06-29T16:24:55.877Z,47.20
2018-06-29T16:25:55.942Z,47.59
2018-06-29T16:27:48.950Z,47.37
2018-06-29T16:28:49.018Z,47.00
2018-06-29T16:30:42.032Z,47.30
2018-06-29T16:31:42.093Z,47.59
2018-06-29T16:33:35.110Z,47.00
2018-06-29T16:34:35.168Z,47.49
2018-06-29T16:36:28.175Z,47.98
2018-06-29T16:37:28.261Z,48.17
2018-06-29T16:39:21.255Z,47.30
2018-06-29T16:40:21.318Z,47.20
2018-06-29T16:42:14.337Z,47.78
2018-06-29T16:43:14.401Z,47.39
2018-06-29T16:45:07.409Z,46.51
2018-06-29T16:46:07.475Z,46.91
2018-06-29T16:48:00.479Z,46.03
2018-06-29T16:49:00.550Z,46.51
2018-06-29T16:50:53.567Z,46.23
2018-06-29T16:51:53.634Z,46.32
2018-06-29T16:53:46.642Z,46.50
2018-06-29T16:54:46.741Z,47.27
2018-06-29T16:56:39.721Z,46.69
2018-06-29T16:57:39.787Z,46.20
2018-06-29T16:59:32.804Z,47.27
2018-06-29T17:00:32.869Z,47.66
2018-06-29T17:02:26.382Z,47.27
2018-06-29T17:03:26.451Z,47.27
2018-06-29T17:05:20.980Z,48.63
2018-06-29T17:06:21.045Z,49.41
2018-06-29T17:08:14.051Z,49.41
2018-06-29T17:09:14.117Z,49.41
2018-06-29T17:11:07.130Z,50.29
2018-06-29T17:12:07.198Z,50.29
2018-06-29T17:14:00.200Z,50.29
2018-06-29T17:15:00.274Z,50.38
2018-06-29T17:16:53.289Z,50.85
2018-06-29T17:17:53.356Z,50.46
2018-06-29T17:19:46.415Z,50.65
2018-06-29T17:20:46.599Z,51.72
2018-06-29T17:22:39.460Z,52.01
2018-06-29T17:23:39.615Z,51.72
2018-06-29T17:25:32.522Z,52.40
2018-06-29T17:26:32.573Z,52.59
2018-06-29T17:28:25.583Z,52.79
2018-06-29T17:29:25.690Z,53.28
2018-06-29T17:31:18.668Z,53.28
2018-06-29T17:32:18.720Z,53.74
2018-06-29T17:34:11.905Z,53.93
2018-06-29T17:35:11.795Z,54.90
2018-06-29T17:37:04.825Z,54.80
2018-06-29T17:38:04.880Z,55.68
2018-06-29T17:39:57.883Z,56.46
2018-06-29T17:40:57.953Z,56.26
2018-06-29T17:42:50.963Z,56.07
2018-06-29T17:43:51.026Z,56.16
2018-06-29T17:45:44.043Z,57.14
2018-06-29T17:46:44.104Z,56.75
2018-06-29T17:48:37.110Z,56.92
2018-06-29T17:49:37.178Z,57.60
2018-06-29T17:51:30.184Z,57.60
2018-06-29T17:52:30.251Z,57.98
2018-06-29T17:54:23.253Z,58.86
2018-06-29T17:55:23.531Z,58.67
2018-06-29T17:57:16.348Z,60.02
2018-06-29T17:58:16.400Z,59.54
2018-06-29T18:00:09.423Z,59.90
2018-06-29T18:01:09.471Z,60.28
2018-06-29T18:03:02.478Z,60.68
2018-06-29T18:04:03.504Z,60.68
2018-06-29T18:05:55.662Z,62.42
2018-06-29T18:06:55.641Z,62.62
2018-06-29T18:08:48.633Z,62.71
2018-06-29T18:09:48.711Z,63.29
2018-06-29T18:11:41.868Z,64.56
2018-06-29T18:12:41.930Z,64.26
2018-06-29T18:14:35.313Z,64.04
2018-06-29T18:15:35.375Z,64.43
2018-06-29T18:17:28.364Z,65.30
2018-06-29T18:18:28.429Z,65.98
2018-06-29T18:20:21.435Z,66.27
2018-06-29T18:21:21.502Z,66.66
2018-06-29T18:23:14.514Z,67.14
2018-06-29T18:24:14.576Z,67.34
2018-06-29T18:26:07.588Z,68.18
2018-06-29T18:27:07.659Z,67.79
2018-06-29T18:29:00.666Z,68.37
2018-06-29T18:30:00.730Z,68.28
2018-06-29T18:31:53.738Z,69.06
2018-06-29T18:32:53.803Z,69.83
2018-06-29T18:34:46.807Z,69.83
2018-06-29T18:35:46.879Z,69.73
2018-06-29T18:37:39.885Z,69.89
2018-06-29T18:38:39.947Z,69.89
2018-06-29T18:40:32.951Z,70.86
2018-06-29T18:41:33.023Z,71.25
2018-06-29T18:43:26.035Z,71.44
2018-06-29T18:44:26.094Z,71.64
2018-06-29T18:46:19.604Z,72.71
2018-06-29T18:47:19.676Z,72.89
2018-06-29T18:49:13.191Z,73.09
2018-06-29T18:50:13.253Z,72.89
2018-06-29T18:52:06.255Z,72.96
2018-06-29T18:53:06.324Z,72.96
2018-06-29T18:54:59.333Z,73.64
2018-06-29T18:55:59.402Z,73.35
2018-06-29T18:57:52.414Z,73.25
2018-06-29T18:58:52.530Z,73.05
2018-06-29T19:00:45.469Z,73.99
2018-06-29T19:01:45.543Z,74.38
2018-06-29T19:03:38.545Z,75.05
2018-06-29T19:04:38.608Z,74.76
2018-06-29T19:06:31.688Z,74.86
2018-06-29T19:07:31.757Z,74.86
2018-06-29T19:09:25.331Z,74.86
2018-06-29T19:10:25.338Z,74.86
2018-06-29T19:12:18.342Z,75.34
2018-06-29T19:13:18.414Z,74.86
2018-06-29T19:15:11.418Z,75.40
2018-06-29T19:16:11.484Z,75.21
2018-06-29T19:18:04.492Z,75.40
2018-06-29T19:19:04.559Z,74.92
2018-06-29T19:20:57.568Z,75.70
2018-06-29T19:21:57.630Z,76.08
2018-06-29T19:23:50.643Z,75.70
2018-06-29T19:24:50.698Z,75.70
2018-06-29T19:26:43.706Z,76.08
2018-06-29T19:27:43.771Z,75.40
2018-06-29T19:29:36.780Z,75.17
2018-06-29T19:30:36.870Z,76.04
2018-06-29T19:32:29.844Z,76.04
2018-06-29T19:33:29.914Z,75.37
2018-06-29T19:35:22.919Z,76.24
2018-06-29T19:36:22.983Z,75.95
2018-06-29T19:38:15.982Z,76.04
2018-06-29T19:39:16.049Z,76.24
2018-06-29T19:41:09.059Z,75.95
2018-06-29T19:42:09.120Z,76.24
2018-06-29T19:44:02.122Z,76.10
2018-06-29T19:45:02.189Z,76.24
2018-06-29T19:46:55.199Z,76.29
2018-06-29T19:47:55.260Z,76.49
2018-06-29T19:49:48.265Z,76.39
2018-06-29T19:50:48.330Z,76.01
2018-06-29T19:52:41.330Z,76.97
2018-06-29T19:53:41.398Z,76.20
2018-06-29T19:55:34.406Z,76.49
2018-06-29T19:56:34.469Z,76.68
2018-06-29T19:58:27.467Z,76.64
2018-06-29T19:59:27.535Z,76.16
2018-06-29T20:01:20.543Z,76.55
2018-06-29T20:02:20.605Z,76.16
2018-06-29T20:04:13.603Z,76.35
2018-06-29T20:05:13.745Z,75.97
2018-06-29T20:07:06.680Z,76.16
2018-06-29T20:08:06.739Z,75.93
2018-06-29T20:09:59.775Z,76.64
2018-06-29T20:10:59.839Z,76.61
2018-06-29T20:12:52.844Z,76.61
2018-06-29T20:13:52.907Z,76.61
2018-06-29T20:15:45.915Z,76.70
2018-06-29T20:16:45.975Z,77.19
2018-06-29T20:18:38.972Z,76.61
2018-06-29T20:19:39.042Z,76.70
2018-06-29T20:21:32.046Z,76.90
2018-06-29T20:22:32.110Z,76.51
2018-06-29T20:24:25.109Z,76.37
2018-06-29T20:25:25.176Z,76.37
2018-06-29T20:27:18.184Z,76.57
2018-06-29T20:28:18.244Z,76.37
2018-06-29T20:30:11.248Z,77.15
2018-06-29T20:31:11.339Z,76.57
2018-06-29T20:33:04.331Z,76.95
2018-06-29T20:34:04.382Z,76.86
2018-06-29T20:35:57.386Z,76.95
2018-06-29T20:36:57.448Z,76.67
2018-06-29T20:38:50.639Z,77.15
2018-06-29T20:39:50.516Z,77.21
2018-06-29T20:41:43.531Z,76.82
2018-06-29T20:42:43.591Z,76.92
2018-06-29T20:44:36.588Z,77.11
2018-06-29T20:45:36.666Z,76.92
2018-06-29T20:47:29.668Z,76.34
2018-06-29T20:48:29.763Z,76.53
2018-06-29T20:50:22.719Z,76.24
2018-06-29T20:51:22.789Z,76.05
2018-06-29T20:53:15.802Z,75.76
2018-06-29T20:54:15.880Z,75.27
2018-06-29T20:56:08.862Z,74.51
2018-06-29T20:57:08.931Z,74.66
2018-06-29T20:59:01.935Z,74.57
2018-06-29T21:00:01.999Z,74.47
2018-06-29T21:01:55.005Z,74.27
2018-06-29T21:02:55.068Z,74.08
2018-06-29T21:04:48.120Z,73.79
2018-06-29T21:05:48.131Z,73.99
2018-06-29T21:07:41.138Z,73.79
2018-06-29T21:08:41.198Z,73.57
2018-06-29T21:10:34.198Z,73.18
2018-06-29T21:11:34.266Z,73.18
2018-06-29T21:13:27.271Z,72.69
2018-06-29T21:14:27.332Z,72.21
2018-06-29T21:16:20.327Z,72.41
2018-06-29T21:17:20.396Z,72.50
2018-06-29T21:19:13.402Z,71.83
2018-06-29T21:20:13.462Z,71.92
2018-06-29T21:22:06.466Z,71.54
2018-06-29T21:23:06.525Z,71.98
2018-06-29T21:24:59.521Z,71.70
2018-06-29T21:25:59.594Z,71.50
2018-06-29T21:27:52.593Z,70.92